Main page
METAR-TAF:

METAR-TAF

Airports :

Burns Municipal Airport

Burns, Oregon, United States

latitude: 43-35-42N, longitude: 118-57-23W, elevation: 4143 ft

Current weather observation

The report was made 36 minutes ago, at 04:53 UTC
Wind 10 mph from the North/Northwest
Temperature 39°F
Humidity 44%
Pressure 30.18 in. Hg
Visibility: 10 miles
Clear sky

METAR: KBNO 220453Z AUTO 33009KT 10SM CLR 04/M07 A3018 RMK AO2 SLP220 T00391072 $

Time: 22:29 (05:29 UTC)

Forecast

The report was made 6 hours and 9 minutes ago, at 23:20 UTC
Forecast valid from 22 at 00 UTC to 22 at 24 UTC
Wind 10 mph from the West/Northwest
Visibility: 6 miles
Broken clouds at a height of 20000 ft
From 22 at 0800 UTC
Wind 5 mph from variable directions
Visibility: 6 miles
Clear sky

TAF: KBNO 212320Z 2200/2224 30009KT P6SM BKN200 FM220800 VRB04KT P6SM SKC

Weather observations and forecasts of more than 4000 airports (METAR and TAF reports).

The available stations are represented by yellow and red dots on the map.

Hover mouse over dot to see the name of the station.

Then click to see weather observations and forecasts.

To change the map : click on the green buttons with a black cross to zoom in, on the green button with a dash to zoom out, or on the green arrows for adjacent maps.


METAR-TAF: